Time;durP1;ratioP1;P1;durP2;ratioP2;P2;SDS_P1;SDS_P2;PMS_P1;PMS_P2;Temp;Humidity;BMP_temperature;BMP_pressure;BME280_temperature;BME280_humidity;BME280_pressure;Samples;Min_cycle;Max_cycle;Signal;HPM_P1;HPM_P2
2023/09/16 00:00:52;;;;;;;6.28;3.45;;;;;;;19.83;56.11;101334.69;5056246;27;20045;-70
2023/09/16 00:03:21;;;;;;;5.70;3.83;;;;;;;19.81;55.96;101329.50;5057126;27;20093;-70
2023/09/16 00:05:49;;;;;;;5.45;3.33;;;;;;;19.81;55.95;101332.22;5055983;28;20053;-70
2023/09/16 00:08:17;;;;;;;6.13;3.88;;;;;;;19.80;56.09;101325.13;5050557;28;20041;-70
2023/09/16 00:10:45;;;;;;;8.30;4.40;;;;;;;19.78;55.93;101338.22;5054144;28;20049;-70
2023/09/16 00:13:13;;;;;;;5.45;3.75;;;;;;;19.78;56.09;101334.69;5052536;28;20416;-69
2023/09/16 00:15:41;;;;;;;7.35;3.70;;;;;;;19.75;55.99;101333.31;5056973;27;20117;-69
2023/09/16 00:18:09;;;;;;;8.10;3.63;;;;;;;19.74;55.94;101342.59;5054056;28;20058;-70
2023/09/16 00:20:38;;;;;;;6.13;3.55;;;;;;;19.72;56.20;101343.94;5059307;27;20079;-69
2023/09/16 00:23:06;;;;;;;4.80;3.38;;;;;;;19.72;56.10;101346.69;5055433;28;20052;-69
2023/09/16 00:25:35;;;;;;;6.78;4.07;;;;;;;19.71;56.01;101348.59;5059806;27;20053;-70
2023/09/16 00:28:06;;;;;;;7.38;4.32;;;;;;;19.69;56.06;101349.94;5054262;28;20052;-70
2023/09/16 00:30:34;;;;;;;7.22;3.85;;;;;;;19.69;56.12;101349.94;5056139;28;20049;-70
2023/09/16 00:33:03;;;;;;;6.07;3.75;;;;;;;19.66;56.20;101343.13;5052250;28;20402;-69
2023/09/16 00:35:31;;;;;;;4.80;3.17;;;;;;;19.64;56.07;101337.13;5050540;27;20053;-69
2023/09/16 00:38:00;;;;;;;10.50;4.07;;;;;;;19.65;56.09;101335.22;5053320;28;20041;-69
2023/09/16 00:40:28;;;;;;;6.43;4.03;;;;;;;19.63;56.25;101334.66;5050781;27;20106;-70
2023/09/16 00:42:56;;;;;;;7.28;3.45;;;;;;;19.62;56.15;101335.75;5050954;27;20045;-70
2023/09/16 00:45:24;;;;;;;7.47;4.07;;;;;;;19.59;56.10;101323.47;5052782;28;20046;-69
2023/09/16 00:47:52;;;;;;;7.82;3.90;;;;;;;19.59;56.22;101330.84;5050311;27;20037;-69
2023/09/16 00:50:20;;;;;;;7.18;3.67;;;;;;;19.57;56.19;101327.56;5056577;28;20469;-69
2023/09/16 00:52:52;;;;;;;6.82;3.85;;;;;;;19.56;56.12;101324.00;5057919;28;20144;-69
2023/09/16 00:55:21;;;;;;;7.03;4.30;;;;;;;19.54;56.18;101323.47;5055125;28;20048;-69
2023/09/16 00:57:51;;;;;;;5.70;3.92;;;;;;;19.52;56.19;101312.00;5054409;27;20090;-69
2023/09/16 01:00:20;;;;;;;7.32;4.03;;;;;;;19.52;56.29;101319.38;5055040;28;20047;-69
2023/09/16 01:02:48;;;;;;;6.75;3.95;;;;;;;19.49;56.34;101313.34;5052001;28;20086;-70
2023/09/16 01:05:17;;;;;;;6.70;3.75;;;;;;;19.48;56.20;101308.16;5052953;27;20044;-70
2023/09/16 01:07:46;;;;;;;5.43;3.33;;;;;;;19.47;56.07;101307.34;5051718;27;20044;-69
2023/09/16 01:10:15;;;;;;;6.65;4.00;;;;;;;19.42;56.24;101307.31;5054485;28;20074;-69
2023/09/16 01:12:45;;;;;;;6.22;3.50;;;;;;;19.45;56.27;101312.25;5054619;27;20049;-70
2023/09/16 01:15:14;;;;;;;6.82;3.95;;;;;;;19.43;56.35;101305.41;5055345;28;20051;-70
2023/09/16 01:17:48;;;;;;;5.70;3.72;;;;;;;19.42;56.41;101310.06;5054123;28;20052;-70
2023/09/16 01:20:18;;;;;;;8.07;4.43;;;;;;;19.41;56.38;101313.03;5056250;27;20484;-70
2023/09/16 01:22:47;;;;;;;10.52;4.03;;;;;;;19.33;56.53;101289.03;5055480;27;20056;-70
2023/09/16 01:25:17;;;;;;;6.35;3.45;;;;;;;19.39;56.52;101309.78;5054847;28;20522;-69
2023/09/16 01:27:45;;;;;;;6.13;4.35;;;;;;;19.36;56.56;101300.22;5058522;28;20045;-70
2023/09/16 01:30:14;;;;;;;8.60;3.90;;;;;;;19.35;56.38;101301.31;5054544;28;20048;-69
2023/09/16 01:32:46;;;;;;;6.55;4.25;;;;;;;19.34;56.58;101307.03;5058218;27;20101;-69
2023/09/16 01:35:17;;;;;;;5.72;3.70;;;;;;;19.30;56.46;101295.03;5055933;28;20095;-69
2023/09/16 01:37:47;;;;;;;6.88;4.25;;;;;;;19.31;56.40;101297.50;5052074;27;20196;-70
2023/09/16 01:40:18;;;;;;;6.72;4.32;;;;;;;19.30;56.48;101305.94;5055737;28;20143;-70
2023/09/16 01:42:47;;;;;;;7.22;3.67;;;;;;;19.30;56.46;101301.31;5054441;28;20041;-70
2023/09/16 01:45:15;;;;;;;7.55;3.88;;;;;;;19.30;56.50;101295.03;5050608;28;20049;-70
2023/09/16 01:47:44;;;;;;;4.82;3.67;;;;;;;19.30;56.63;101295.84;5056132;28;20053;-70
2023/09/16 01:50:12;;;;;;;9.45;4.28;;;;;;;19.29;56.41;101287.94;5057396;28;20076;-70
2023/09/16 01:52:40;;;;;;;7.22;4.25;;;;;;;19.28;56.56;101284.41;5055437;27;20076;-70
2023/09/16 01:55:09;;;;;;;5.95;4.13;;;;;;;19.26;56.49;101283.84;5055720;27;20041;-69
2023/09/16 01:57:38;;;;;;;6.93;3.97;;;;;;;19.26;56.49;101283.03;5059502;28;20114;-70
2023/09/16 02:00:07;;;;;;;6.65;4.28;;;;;;;19.24;56.67;101285.19;5056587;27;20049;-70
2023/09/16 02:02:35;;;;;;;7.18;4.13;;;;;;;19.24;56.51;101290.66;5058793;28;20045;-69
2023/09/16 02:05:03;;;;;;;6.15;3.95;;;;;;;19.22;56.51;101288.19;5058442;27;20078;-69
2023/09/16 02:07:31;;;;;;;5.40;4.38;;;;;;;19.21;56.78;101286.56;5059716;27;20064;-70
2023/09/16 02:09:59;;;;;;;6.50;4.03;;;;;;;19.20;56.84;101279.47;5061671;27;20720;-69
2023/09/16 02:12:27;;;;;;;6.22;3.97;;;;;;;19.20;56.61;101284.91;5059128;28;20101;-69
2023/09/16 02:14:56;;;;;;;6.50;3.78;;;;;;;19.18;56.89;101287.91;5054457;28;20045;-69
2023/09/16 02:17:25;;;;;;;5.30;3.92;;;;;;;19.17;56.78;101289.00;5059628;28;20049;-69
2023/09/16 02:19:53;;;;;;;7.30;4.32;;;;;;;19.16;56.63;101281.91;5055247;27;20054;-69
2023/09/16 02:22:20;;;;;;;5.47;4.20;;;;;;;19.15;56.79;101283.00;5059950;28;20041;-70
2023/09/16 02:24:49;;;;;;;7.70;4.85;;;;;;;19.14;56.76;101292.25;5054495;28;20068;-69
2023/09/16 02:27:18;;;;;;;6.28;4.60;;;;;;;19.12;56.78;101294.44;5048885;28;20402;-70
2023/09/16 02:29:48;;;;;;;9.10;4.15;;;;;;;19.12;56.75;101299.88;5054318;28;20577;-69
2023/09/16 02:32:17;;;;;;;6.40;4.05;;;;;;;19.09;56.83;101297.69;5055877;28;20045;-69
2023/09/16 02:34:45;;;;;;;8.10;3.92;;;;;;;19.08;56.85;101296.06;5057520;28;20061;-69
2023/09/16 02:37:12;;;;;;;8.77;4.93;;;;;;;19.08;57.10;101293.34;5060285;27;20181;-70
2023/09/16 02:39:40;;;;;;;8.57;4.40;;;;;;;19.07;57.05;101299.06;5057413;27;20037;-69
2023/09/16 02:42:08;;;;;;;7.15;3.97;;;;;;;19.05;57.14;101298.53;5049469;28;20057;-70
2023/09/16 02:44:36;;;;;;;7.20;4.35;;;;;;;19.02;57.09;101286.25;5058369;28;20048;-68
2023/09/16 02:47:04;;;;;;;6.55;4.43;;;;;;;19.02;57.16;101280.81;5063145;27;20064;-71
2023/09/16 02:49:33;;;;;;;6.60;4.20;;;;;;;19.01;57.03;101284.63;5060724;27;20048;-70
2023/09/16 02:52:01;;;;;;;7.88;4.85;;;;;;;19.01;57.17;101284.63;5062424;28;20052;-71
2023/09/16 02:54:29;;;;;;;6.32;4.22;;;;;;;18.99;57.11;101277.81;5070782;27;20147;-70
2023/09/16 02:56:56;;;;;;;7.53;3.63;;;;;;;18.98;57.19;101281.63;5055370;28;20073;-70
2023/09/16 02:59:24;;;;;;;8.75;4.90;;;;;;;18.97;57.35;101277.25;5061526;28;20060;-70
2023/09/16 03:01:52;;;;;;;9.75;4.88;;;;;;;18.96;57.29;101281.06;5059965;28;20057;-70
2023/09/16 03:04:20;;;;;;;7.35;4.55;;;;;;;18.95;57.05;101276.69;5061450;28;20045;-70
2023/09/16 03:06:49;;;;;;;7.18;4.43;;;;;;;18.95;57.40;101276.69;5060121;27;20136;-70
2023/09/16 03:09:19;;;;;;;6.85;4.03;;;;;;;18.93;57.39;101276.16;5061292;28;20041;-70
2023/09/16 03:11:47;;;;;;;6.78;4.55;;;;;;;18.92;57.27;101271.78;5063005;27;20045;-70
2023/09/16 03:14:15;;;;;;;7.25;4.25;;;;;;;18.90;57.48;101272.06;5062277;28;20041;-70
2023/09/16 03:16:43;;;;;;;9.73;5.53;;;;;;;18.90;57.53;101279.41;5065663;27;20048;-70
2023/09/16 03:19:11;;;;;;;6.43;4.60;;;;;;;18.89;57.49;101281.31;5076812;27;20037;-70
2023/09/16 03:21:39;;;;;;;7.88;4.80;;;;;;;18.88;57.37;101274.22;5067005;27;20053;-70
2023/09/16 03:24:08;;;;;;;8.32;4.38;;;;;;;18.87;57.36;101280.75;5063392;27;20458;-70
2023/09/16 03:26:36;;;;;;;7.03;4.60;;;;;;;18.87;57.48;101286.19;5065506;28;20064;-70
2023/09/16 03:29:04;;;;;;;6.07;3.90;;;;;;;18.85;57.43;101270.13;5064926;28;20049;-70
2023/09/16 03:31:31;;;;;;;7.43;4.43;;;;;;;18.82;57.51;101267.13;5061675;27;20125;-70
2023/09/16 03:33:59;;;;;;;6.80;4.93;;;;;;;18.84;57.43;101273.94;5061311;28;20127;-70
2023/09/16 03:36:27;;;;;;;9.20;4.80;;;;;;;18.83;57.45;101271.47;5055061;27;20454;-70
2023/09/16 03:38:55;;;;;;;7.40;4.30;;;;;;;18.83;57.40;101266.03;5059793;28;20049;-69
2023/09/16 03:41:24;;;;;;;8.80;4.50;;;;;;;18.82;57.35;101261.66;5057672;27;20049;-70
2023/09/16 03:43:52;;;;;;;10.52;4.15;;;;;;;18.80;57.46;101261.13;5060061;28;20044;-70
2023/09/16 03:46:19;;;;;;;6.95;4.55;;;;;;;18.80;57.59;101259.22;5060231;27;20089;-70
2023/09/16 03:48:47;;;;;;;7.80;4.50;;;;;;;18.78;57.65;101255.94;5056320;28;20124;-70
2023/09/16 03:51:16;;;;;;;7.43;5.18;;;;;;;18.78;57.69;101252.41;5055285;27;20038;-69
2023/09/16 03:53:44;;;;;;;6.68;4.50;;;;;;;18.77;57.50;101251.59;5058931;28;20049;-70
2023/09/16 03:56:12;;;;;;;7.70;4.57;;;;;;;18.76;57.66;101249.13;5050986;27;20104;-70
2023/09/16 03:58:41;;;;;;;8.15;4.72;;;;;;;18.68;57.54;101241.47;5047618;28;20049;-70
2023/09/16 04:01:09;;;;;;;10.52;4.95;;;;;;;18.73;57.58;101245.03;5054477;28;20098;-70
2023/09/16 04:03:37;;;;;;;6.53;4.50;;;;;;;18.74;57.61;101254.84;5054262;28;20457;-70
2023/09/16 04:06:06;;;;;;;7.68;4.85;;;;;;;18.68;57.65;101250.44;5052000;27;20123;-70
2023/09/16 04:08:34;;;;;;;6.60;4.38;;;;;;;18.71;57.61;101255.38;5055706;28;20478;-69
2023/09/16 04:11:08;;;;;;;6.43;4.68;;;;;;;18.70;57.52;101258.34;5051368;28;20045;-70
2023/09/16 04:13:36;;;;;;;7.10;4.15;;;;;;;18.69;57.48;101260.25;5057184;28;20056;-70
2023/09/16 04:16:05;;;;;;;5.85;4.32;;;;;;;18.67;57.66;101256.97;5054013;28;20053;-70
2023/09/16 04:18:34;;;;;;;6.05;4.18;;;;;;;18.66;57.82;101260.78;5058264;27;20054;-70
2023/09/16 04:21:02;;;;;;;7.30;4.40;;;;;;;18.66;57.66;101255.34;5056031;27;20037;-70
2023/09/16 04:23:31;;;;;;;7.43;4.53;;;;;;;18.66;57.83;101246.34;5055379;27;20391;-70
2023/09/16 04:26:00;;;;;;;9.73;4.72;;;;;;;18.64;57.75;101248.53;5058323;28;20518;-70
2023/09/16 04:28:29;;;;;;;7.55;4.80;;;;;;;18.63;57.88;101250.44;5051776;27;20108;-70
2023/09/16 04:30:57;;;;;;;6.20;4.45;;;;;;;18.62;57.71;101254.25;5050760;28;20057;-70
2023/09/16 04:33:26;;;;;;;9.15;5.05;;;;;;;18.62;58.06;101251.50;5048426;27;20060;-70
2023/09/16 04:35:54;;;;;;;5.85;4.47;;;;;;;18.61;57.80;101240.88;5061990;27;20071;-70
2023/09/16 04:38:22;;;;;;;5.72;4.10;;;;;;;18.60;57.78;101241.94;5055353;27;20101;-70
2023/09/16 04:40:50;;;;;;;7.05;5.15;;;;;;;18.59;57.83;101241.13;5064925;27;20105;-70
2023/09/16 04:43:18;;;;;;;7.93;5.25;;;;;;;18.54;57.94;101235.66;5054432;27;20048;-68
2023/09/16 04:45:48;;;;;;;9.25;5.03;;;;;;;18.57;57.92;101245.19;5055040;27;20045;-72
2023/09/16 04:48:18;;;;;;;7.32;4.80;;;;;;;18.50;58.08;101235.38;5060292;27;20578;-71
2023/09/16 04:50:47;;;;;;;6.32;4.03;;;;;;;18.52;57.85;101235.91;5058187;27;20052;-71
2023/09/16 04:53:17;;;;;;;11.77;4.85;;;;;;;18.51;57.92;101237.00;5055122;27;20148;-71
2023/09/16 04:55:45;;;;;;;7.43;4.40;;;;;;;18.50;58.03;101246.25;5052805;28;20045;-71
2023/09/16 04:58:12;;;;;;;9.65;4.57;;;;;;;18.50;57.91;101248.97;5056294;28;20266;-68
2023/09/16 05:00:41;;;;;;;6.55;4.38;;;;;;;18.49;58.12;101244.63;5049841;28;20045;-71
2023/09/16 05:03:08;;;;;;;5.32;4.15;;;;;;;18.48;58.19;101250.31;5055851;27;20143;-71
2023/09/16 05:05:36;;;;;;;7.40;4.55;;;;;;;18.45;58.23;101243.50;5055244;28;20117;-71
2023/09/16 05:08:06;;;;;;;5.57;4.30;;;;;;;18.44;58.07;101241.06;5055180;28;20168;-71
2023/09/16 05:10:33;;;;;;;11.40;5.47;;;;;;;18.43;58.07;101242.94;5055576;27;20069;-70
2023/09/16 05:13:01;;;;;;;7.00;4.30;;;;;;;18.43;58.12;101245.69;5071705;27;20102;-71
2023/09/16 05:15:29;;;;;;;7.65;5.20;;;;;;;18.42;57.91;101248.66;5058329;28;20045;-71
2023/09/16 05:17:57;;;;;;;8.55;5.03;;;;;;;18.41;58.02;101250.56;4696775;27;10000186;-65
2023/09/16 05:20:25;;;;;;;9.73;4.80;;;;;;;18.39;58.18;101243.75;5050926;27;20045;-71
2023/09/16 05:22:52;;;;;;;8.63;4.90;;;;;;;18.38;58.31;101247.56;5056407;27;20064;-72
2023/09/16 05:25:21;;;;;;;9.38;4.63;;;;;;;18.38;58.10;101250.28;5059366;27;20063;-70
2023/09/16 05:27:49;;;;;;;9.13;5.00;;;;;;;18.36;58.11;101247.00;5084916;27;20170;-70
2023/09/16 05:30:17;;;;;;;6.97;4.40;;;;;;;18.36;58.13;101247.81;5050262;28;20055;-70
2023/09/16 05:32:45;;;;;;;8.82;5.05;;;;;;;18.36;58.18;101249.72;5047686;28;20049;-69
2023/09/16 05:35:13;;;;;;;6.15;4.32;;;;;;;18.36;58.27;101247.00;5054060;28;20052;-68
2023/09/16 05:37:41;;;;;;;6.97;4.45;;;;;;;18.36;58.33;101255.16;5051308;27;20053;-69
2023/09/16 05:40:11;;;;;;;6.97;4.65;;;;;;;18.35;58.32;101242.63;5054939;27;20054;-68
2023/09/16 05:42:40;;;;;;;8.00;4.45;;;;;;;18.32;58.40;101243.97;5054647;27;20064;-67
2023/09/16 05:45:10;;;;;;;8.63;5.13;;;;;;;18.32;58.17;101243.97;5050761;27;20056;-67
2023/09/16 05:47:38;;;;;;;7.53;5.30;;;;;;;18.32;58.45;101248.59;5056145;27;20057;-66
2023/09/16 05:50:06;;;;;;;7.18;5.00;;;;;;;18.30;58.53;101246.16;5056859;28;20072;-67
2023/09/16 05:52:34;;;;;;;8.35;4.82;;;;;;;18.28;58.60;101248.31;5050823;28;20057;-67
2023/09/16 05:55:02;;;;;;;5.75;4.15;;;;;;;18.28;58.62;101242.88;5053551;27;20044;-67
2023/09/16 05:57:30;;;;;;;7.88;4.60;;;;;;;18.23;58.58;101247.47;5054760;28;20101;-66
2023/09/16 05:59:59;;;;;;;6.38;4.70;;;;;;;18.26;58.51;101247.75;5066603;27;20056;-66
2023/09/16 06:02:27;;;;;;;6.07;4.10;;;;;;;18.26;58.55;101249.66;5056782;27;20563;-66
2023/09/16 06:04:55;;;;;;;7.75;4.68;;;;;;;18.11;58.68;101231.34;5056803;28;20049;-65
2023/09/16 06:07:25;;;;;;;6.38;4.70;;;;;;;18.25;58.65;101259.72;5057139;28;20148;-65
2023/09/16 06:09:53;;;;;;;9.27;4.65;;;;;;;18.24;58.69;101251.81;5052924;28;20052;-69
2023/09/16 06:12:21;;;;;;;6.78;4.57;;;;;;;18.23;58.79;101258.34;5053495;27;20056;-67
2023/09/16 06:14:49;;;;;;;6.20;4.55;;;;;;;18.22;58.83;101257.53;5069911;27;20462;-69
2023/09/16 06:17:19;;;;;;;9.15;5.00;;;;;;;18.20;59.17;101268.66;5051358;27;20056;-66
2023/09/16 06:19:51;;;;;;;10.10;6.43;;;;;;;18.19;59.89;101261.59;5052248;27;20494;-69
2023/09/16 06:22:19;;;;;;;14.25;5.57;;;;;;;18.20;60.09;101259.69;5053753;28;20070;-70
2023/09/16 06:24:47;;;;;;;13.57;5.13;;;;;;;18.21;59.83;101269.50;5054879;27;20122;-69
2023/09/16 06:27:15;;;;;;;11.13;4.40;;;;;;;18.21;59.71;101264.88;5059479;28;20056;-69
2023/09/16 06:29:43;;;;;;;9.82;4.80;;;;;;;18.26;59.76;101258.63;5053707;28;20045;-69
2023/09/16 06:32:11;;;;;;;5.00;3.90;;;;;;;18.28;59.61;101266.53;5044066;28;20197;-69
2023/09/16 06:34:40;;;;;;;6.88;4.78;;;;;;;18.29;59.34;101265.47;5054073;27;20049;-70
2023/09/16 06:37:08;;;;;;;7.40;4.53;;;;;;;18.31;59.52;101268.72;5055981;28;20482;-71
2023/09/16 06:39:36;;;;;;;6.00;3.92;;;;;;;18.29;59.33;101268.19;5050874;27;20052;-71
2023/09/16 06:42:06;;;;;;;7.75;4.50;;;;;;;18.33;59.15;101272.84;5065238;27;20052;-71
2023/09/16 06:44:34;;;;;;;6.05;4.05;;;;;;;18.34;59.29;101269.03;5042976;27;20053;-71
2023/09/16 06:47:01;;;;;;;7.55;4.47;;;;;;;18.36;59.31;101272.31;5057836;27;20506;-70
2023/09/16 06:49:29;;;;;;;7.90;4.07;;;;;;;18.38;59.29;101266.59;5056795;28;20074;-70
2023/09/16 06:51:58;;;;;;;7.78;4.20;;;;;;;18.39;59.15;101266.34;5050183;27;20102;-70
2023/09/16 06:54:27;;;;;;;8.32;4.18;;;;;;;18.40;59.19;101269.88;5048938;28;20049;-72
2023/09/16 06:56:55;;;;;;;7.32;4.22;;;;;;;18.42;59.28;101267.72;5048795;28;20050;-72
2023/09/16 06:59:23;;;;;;;7.53;3.97;;;;;;;18.44;59.07;101268.25;5051545;28;20053;-68
2023/09/16 07:01:51;;;;;;;5.15;4.05;;;;;;;18.45;59.11;101261.75;5052245;28;20093;-70
2023/09/16 07:04:19;;;;;;;7.07;4.13;;;;;;;18.46;59.06;101264.19;5052781;28;20057;-71
2023/09/16 07:06:47;;;;;;;5.95;4.07;;;;;;;18.45;59.10;101259.03;5056243;28;20147;-73
2023/09/16 07:09:18;;;;;;;4.90;3.40;;;;;;;18.44;59.06;101260.91;5050765;27;20113;-71
2023/09/16 07:11:46;;;;;;;5.38;3.55;;;;;;;18.44;59.01;101260.09;5056168;27;20489;-71
2023/09/16 07:14:14;;;;;;;10.23;4.35;;;;;;;18.45;59.21;101261.75;5056523;28;20045;-72
2023/09/16 07:16:42;;;;;;;5.80;3.90;;;;;;;18.43;59.21;101263.91;5050927;27;20363;-71
2023/09/16 07:19:10;;;;;;;7.53;4.28;;;;;;;18.43;59.17;101267.44;5049492;27;20055;-71
2023/09/16 07:21:38;;;;;;;4.20;3.08;;;;;;;18.44;59.20;101265.53;5047903;28;20090;-69
2023/09/16 07:24:07;;;;;;;6.78;3.83;;;;;;;18.43;59.18;101270.16;5053823;27;20049;-70
2023/09/16 07:26:36;;;;;;;5.57;3.92;;;;;;;18.43;59.26;101263.91;5052455;28;20144;-70
2023/09/16 07:29:04;;;;;;;8.00;3.95;;;;;;;18.41;59.27;101271.50;5049233;28;20049;-69
2023/09/16 07:31:32;;;;;;;6.05;3.67;;;;;;;18.42;59.24;101262.28;5054907;27;20048;-69
2023/09/16 07:34:00;;;;;;;5.18;3.50;;;;;;;18.41;59.09;101258.72;5055338;27;20156;-69
2023/09/16 07:36:28;;;;;;;4.65;3.53;;;;;;;18.43;59.45;101266.63;5033597;27;1087531;-70
2023/09/16 07:38:55;;;;;;;5.53;3.67;;;;;;;18.44;59.32;101260.09;5056371;27;20056;-70
2023/09/16 07:41:24;;;;;;;8.02;3.60;;;;;;;18.39;59.08;101257.34;5058861;27;20431;-70
2023/09/16 07:43:53;;;;;;;4.88;3.15;;;;;;;18.45;59.36;101272.63;5067186;28;20048;-70
2023/09/16 07:46:21;;;;;;;4.70;3.33;;;;;;;18.45;59.30;101269.91;5045660;28;20049;-71
2023/09/16 07:48:49;;;;;;;6.60;3.22;;;;;;;18.45;59.23;101265.28;5079262;27;20061;-73
2023/09/16 07:51:17;;;;;;;7.25;3.88;;;;;;;18.45;59.36;101261.75;5060544;27;20045;-72
2023/09/16 07:53:45;;;;;;;7.28;3.92;;;;;;;18.47;59.72;101273.19;5062107;27;20109;-72
2023/09/16 07:56:16;;;;;;;4.93;3.70;;;;;;;18.48;59.52;101269.38;5057327;28;20966;-72
2023/09/16 07:58:44;;;;;;;6.93;3.40;;;;;;;18.48;59.79;101264.75;5063293;27;20060;-71
2023/09/16 08:01:13;;;;;;;4.85;3.25;;;;;;;18.48;59.45;101270.19;5059832;28;20053;-71
2023/09/16 08:03:42;;;;;;;10.85;5.15;;;;;;;18.52;60.69;101278.66;5054677;27;20045;-70
2023/09/16 08:06:10;;;;;;;10.73;6.80;;;;;;;18.56;62.33;101284.38;5056722;27;20049;-68
2023/09/16 08:08:38;;;;;;;16.13;4.68;;;;;;;18.55;61.02;101280.84;5055119;28;20060;-71
2023/09/16 08:11:06;;;;;;;8.35;4.20;;;;;;;18.57;60.87;101283.31;5063314;27;20531;-73
2023/09/16 08:13:34;;;;;;;6.45;3.80;;;;;;;18.58;61.26;101282.22;5059841;27;20045;-75
2023/09/16 08:16:02;;;;;;;15.85;4.65;;;;;;;18.57;61.14;101280.59;5053947;28;20049;-73
2023/09/16 08:18:31;;;;;;;8.75;4.20;;;;;;;18.58;60.75;101279.50;5051013;28;20075;-73
2023/09/16 08:21:00;;;;;;;8.18;5.10;;;;;;;18.59;61.54;101284.69;5052422;28;20378;-74
2023/09/16 08:23:28;;;;;;;12.43;4.72;;;;;;;18.63;61.87;101288.53;5058776;27;20045;-73
2023/09/16 08:25:55;;;;;;;9.45;4.53;;;;;;;18.63;61.82;101274.94;5055792;28;20048;-72
2023/09/16 08:28:23;;;;;;;6.63;4.03;;;;;;;18.65;61.40;101285.56;5055503;28;20078;-72
2023/09/16 08:30:51;;;;;;;6.65;4.18;;;;;;;18.65;61.29;101291.81;5052820;27;20053;-72
2023/09/16 08:33:19;;;;;;;9.02;4.18;;;;;;;18.66;61.34;101296.19;5056257;28;20537;-71
2023/09/16 08:35:49;;;;;;;9.25;3.80;;;;;;;18.67;61.16;101295.09;5055258;28;20550;-72
2023/09/16 08:38:16;;;;;;;4.85;3.10;;;;;;;18.69;61.16;101294.84;5054013;27;20057;-70
2023/09/16 08:40:44;;;;;;;9.32;3.95;;;;;;;18.69;60.87;101303.81;5057236;28;20050;-70
2023/09/16 08:43:21;;;;;;;10.35;3.85;;;;;;;18.71;61.15;101298.94;5079706;27;20049;-72
2023/09/16 08:45:56;;;;;;;6.03;3.35;;;;;;;18.73;61.20;101295.94;5058400;27;20064;-70
2023/09/16 08:48:26;;;;;;;6.85;3.40;;;;;;;18.73;61.22;101296.75;5060802;27;20109;-70
2023/09/16 08:50:58;;;;;;;7.45;3.58;;;;;;;18.75;61.20;101307.41;5060980;27;20055;-68
2023/09/16 08:53:29;;;;;;;5.53;2.83;;;;;;;18.64;61.24;101292.09;5057725;28;20037;-73
2023/09/16 08:55:59;;;;;;;4.60;2.88;;;;;;;18.78;61.46;101306.84;5058834;28;20068;-70
2023/09/16 08:58:27;;;;;;;10.30;3.70;;;;;;;18.80;61.71;101304.69;5060310;27;20049;-69
2023/09/16 09:00:55;;;;;;;4.40;3.42;;;;;;;18.80;61.76;101296.53;5053988;27;20531;-70
2023/09/16 09:03:24;;;;;;;5.70;3.67;;;;;;;18.82;61.58;101306.06;5056914;27;20045;-71
2023/09/16 09:05:52;;;;;;;7.35;3.55;;;;;;;18.83;61.36;101304.16;5055660;27;20049;-71
2023/09/16 09:08:22;;;;;;;4.53;3.38;;;;;;;18.84;61.77;101300.34;5050732;28;20286;-73
2023/09/16 09:10:50;;;;;;;5.28;3.50;;;;;;;18.75;61.65;101283.69;5053717;28;20049;-74
2023/09/16 09:13:20;;;;;;;4.22;3.10;;;;;;;18.89;61.89;101305.00;5050746;27;20047;-72
2023/09/16 09:15:50;;;;;;;5.18;3.30;;;;;;;18.89;61.71;101311.28;5049586;28;20073;-69
2023/09/16 09:18:18;;;;;;;6.72;4.80;;;;;;;18.93;64.07;101303.38;5053102;27;20136;-71
2023/09/16 09:20:47;;;;;;;9.63;5.70;;;;;;;19.10;64.68;101317.59;5051339;28;20513;-72
2023/09/16 09:23:15;;;;;;;8.27;5.20;;;;;;;19.18;64.63;101319.78;5055697;28;20046;-72
2023/09/16 09:25:44;;;;;;;12.10;5.32;;;;;;;19.25;64.51;101320.38;5053175;27;20450;-73
2023/09/16 09:28:14;;;;;;;6.63;4.95;;;;;;;19.30;64.84;101314.94;5055696;28;20121;-72
2023/09/16 09:30:42;;;;;;;8.27;5.47;;;;;;;19.37;64.50;101315.50;5054207;28;20057;-69
2023/09/16 09:33:14;;;;;;;11.82;5.05;;;;;;;19.40;64.25;101308.69;5053014;27;20144;-71
2023/09/16 09:35:43;;;;;;;7.80;4.47;;;;;;;19.42;64.26;101312.78;5064574;27;20350;-71
2023/09/16 09:38:11;;;;;;;7.50;4.93;;;;;;;19.46;64.54;101322.06;5048780;27;20078;-71
2023/09/16 09:40:39;;;;;;;10.65;4.97;;;;;;;19.51;64.97;101318.53;5051369;28;20094;-70
2023/09/16 09:43:08;;;;;;;6.20;3.90;;;;;;;19.55;64.64;101327.00;5054471;28;20255;-67
2023/09/16 09:45:37;;;;;;;6.30;4.13;;;;;;;19.58;64.74;101327.28;5048362;27;20080;-69
2023/09/16 09:48:06;;;;;;;6.20;4.07;;;;;;;19.64;64.68;101323.47;5050637;27;20046;-67
2023/09/16 09:50:34;;;;;;;7.05;4.60;;;;;;;19.74;63.27;101328.94;5054623;27;20049;-71
2023/09/16 09:53:02;;;;;;;9.48;3.20;;;;;;;19.73;63.67;101327.31;5057163;28;20049;-72
2023/09/16 09:55:31;;;;;;;9.73;4.25;;;;;;;19.72;64.09;101319.41;5053376;27;20474;-74
2023/09/16 09:57:59;;;;;;;7.65;4.22;;;;;;;19.73;64.45;101323.75;5062835;27;20045;-73
2023/09/16 10:00:29;;;;;;;14.07;7.22;;;;;;;19.73;64.40;101324.59;5051280;27;20452;-73
2023/09/16 10:02:59;;;;;;;7.35;4.20;;;;;;;19.73;64.71;101321.84;5058050;28;20490;-76
2023/09/16 10:05:27;;;;;;;9.73;5.18;;;;;;;19.73;64.64;101321.03;5057623;28;20045;-72
2023/09/16 10:07:55;;;;;;;9.65;6.07;;;;;;;19.78;64.79;101323.78;5056571;27;20048;-70
2023/09/16 10:10:25;;;;;;;8.60;5.43;;;;;;;19.81;64.83;101323.22;5062108;28;20113;-71
2023/09/16 10:12:55;;;;;;;14.07;7.00;;;;;;;19.85;65.06;101312.59;5058055;28;20077;-71
2023/09/16 10:15:24;;;;;;;12.90;6.88;;;;;;;19.90;65.45;101315.31;5059089;28;20094;-71
2023/09/16 10:17:54;;;;;;;12.25;6.15;;;;;;;19.99;64.68;101309.03;5059294;27;20045;-75
2023/09/16 10:20:22;;;;;;;13.40;5.80;;;;;;;20.07;64.46;101311.22;5059201;27;20037;-72
2023/09/16 10:22:52;;;;;;;11.55;6.13;;;;;;;20.07;64.46;101304.94;5054332;28;20513;-73
2023/09/16 10:25:20;;;;;;;16.45;8.15;;;;;;;20.15;65.03;101312.59;5072010;27;20040;-74
2023/09/16 10:27:56;;;;;;;17.60;8.38;;;;;;;20.19;65.23;101307.41;5065567;27;20041;-71
2023/09/16 10:30:25;;;;;;;22.35;7.03;;;;;;;20.21;65.33;101303.31;5057586;28;20084;-71
2023/09/16 10:32:55;;;;;;;11.73;6.85;;;;;;;20.23;65.24;101303.03;5059471;27;20059;-71
2023/09/16 10:35:24;;;;;;;9.45;5.15;;;;;;;20.25;64.65;101303.56;5061234;27;20082;-70
2023/09/16 10:37:53;;;;;;;12.40;6.47;;;;;;;20.22;64.58;101291.28;5057216;27;20116;-75
2023/09/16 10:40:21;;;;;;;9.38;4.65;;;;;;;20.29;64.41;101297.28;5055576;27;20049;-77
2023/09/16 10:42:51;;;;;;;11.20;6.20;;;;;;;20.35;64.43;101298.09;5063656;27;20076;-72
2023/09/16 10:45:19;;;;;;;9.05;5.10;;;;;;;20.40;64.29;101292.66;5061092;27;20039;-72
2023/09/16 10:47:47;;;;;;;10.00;5.28;;;;;;;20.43;64.27;101292.09;5064753;27;20130;-71
2023/09/16 10:50:17;;;;;;;8.07;5.45;;;;;;;20.47;64.26;101295.91;5063887;27;20060;-71
2023/09/16 10:52:49;;;;;;;8.30;4.95;;;;;;;20.50;64.25;101292.63;5064564;27;20051;-70
2023/09/16 10:55:24;;;;;;;8.23;5.00;;;;;;;20.55;64.33;101284.44;5061802;27;20048;-71
2023/09/16 10:57:58;;;;;;;7.75;4.45;;;;;;;20.57;64.34;101287.69;5075405;27;20043;-71
2023/09/16 11:00:31;;;;;;;7.05;4.75;;;;;;;20.62;64.13;101286.88;5065628;27;20079;-72
2023/09/16 11:03:03;;;;;;;9.30;4.93;;;;;;;20.66;64.08;101288.75;5058445;28;20059;-72
2023/09/16 11:05:33;;;;;;;9.18;5.78;;;;;;;20.74;64.39;101287.38;5056833;27;20061;-76
2023/09/16 11:08:01;;;;;;;7.70;4.75;;;;;;;20.83;64.76;101303.97;5053967;28;20058;-72
2023/09/16 11:10:30;;;;;;;7.88;4.63;;;;;;;20.86;64.72;101287.03;5054130;28;20049;-71
2023/09/16 11:12:58;;;;;;;7.50;4.47;;;;;;;20.92;64.32;101292.19;5057621;27;20061;-71
2023/09/16 11:15:31;;;;;;;7.25;4.55;;;;;;;20.98;64.17;101288.31;5058700;28;20121;-71
2023/09/16 11:18:04;;;;;;;14.68;5.68;;;;;;;21.04;64.64;101283.66;5057055;28;20175;-71
2023/09/16 11:20:35;;;;;;;10.02;5.10;;;;;;;21.11;64.55;101281.44;5057145;27;20060;-71
2023/09/16 11:23:03;;;;;;;6.55;4.25;;;;;;;21.08;64.66;101271.06;5055236;27;20051;-70
2023/09/16 11:25:33;;;;;;;8.93;4.20;;;;;;;21.13;64.11;101276.50;4414219;27;10001442;-72
2023/09/16 11:28:06;;;;;;;13.38;5.15;;;;;;;21.17;63.85;101277.56;5129355;27;20053;-70
2023/09/16 11:30:36;;;;;;;14.77;6.20;;;;;;;21.22;64.11;101272.09;5134772;27;20078;-71